AirNav   Everest Fuels
 
 1053 users online  

03TN Eagles Landing Heliport
Sevierville, Tennessee, USA

GOING TO SEVIERVILLE?


FAA INFORMATION EFFECTIVE 21 MAY 2020

Location

FAA Identifier: 03TN
Lat/Long: 35-55-21.0000N 083-34-46.0000W
35-55.350000N 083-34.766667W
35.9225000,-83.5794444
(estimated)
Elevation: 1000 ft. / 305 m (estimated)
Variation: 05W (2000)
Time zone: UTC -4 (UTC -5 during Standard Time)
Zip code: 37876

Heliport Operations

Heliport use: Private use. Permission required prior to landing
Activation date: 04/2001
Control tower: no
ARTCC: ATLANTA CENTER
FSS: NASHVILLE FLIGHT SERVICE STATION
Attendance: UNATNDD
Segmented circle: no

Heliport Communications

WX AWOS-3 at GKT (5 nm SE): 126.875 (865-429-5401)
WX AWOS-3 at DKX (15 nm W): 125.375 (865-579-6151)
WX AWOS-3 at MOR (18 nm NE): 126.725 (423-587-5886)

Nearby radio navigation aids

VOR radial/distance  VOR name  Freq  Var
VXVr089/15.4VOLUNTEER VORTAC116.4003W
SOTr291/26.8SNOWBIRD VORTAC108.8004W

 
NDB name  Hdg/Dist  Freq  Var  ID
JEFFERSON208/12.434604WJXT .--- -..- -
DULANEY256/35.826307WDYQ -.. -.-- --.-

Heliport Services

Runway Information

Helipad H1

Dimensions: 20 x 20 ft. / 6 x 6 m
Surface: turf
Traffic pattern: leftleft

Heliport Ownership and Management from official FAA records

Ownership: Privately-owned
Owner: HAROLD L. HAYNES
2720 CLABO ROAD
SEVIERVILLE, TN 37862
Phone 865-428-1941

Additional Remarks

50 FT TREES 500 FT NORTHEAST OF HELIPAD.
FOR CD CTC ATLANTA ARTCC AT 770-210-7692.

Instrument Procedures

There are no published instrument procedures at 03TN.

Some nearby airports with instrument procedures:

KGKT - Gatlinburg-Pigeon Forge Airport (5 nm SE)
KDKX - Knoxville Downtown Island Airport (15 nm W)
KMOR - Moore-Murrell Airport (18 nm NE)
KTYS - Mc Ghee Tyson Airport (21 nm W)
3A2 - New Tazewell Municipal Airport (29 nm N)
 
Loc | Ops | Rwys | IFR | FBO | Links
Com | Nav | Svcs | Stats | Notes
Area around 03TN (Eagles Landing Heliport)
 
Road maps at: MapQuest Bing Google
 
Aerial photo
No photo
 
Sectional chart

 
Airport distance calculator
Flying to Eagles Landing Heliport? Find the distance to fly.

From to 03TN

Sunrise and sunset
Times for 30-May-2020
 Local
(UTC-4)
 Zulu
(UTC)
Morning civil twilight05:5109:51
Sunrise06:2010:20
Sunset20:4400:44
Evening civil twilight21:1301:13

Current date and time
Zulu (UTC)  30-May-2020 18:16:25
Local (UTC-4)  30-May-2020 14:16:25
 
METAR
KGKT 
5nm SE 
301755Z AUTO VRB03KT 10SM CLR 27/13 A3006 RMK A01
KDKX 
15nm W 
301755Z AUTO 00000KT 10SM FEW060 27/13 A3006 RMK A01
KMOR 
18nm NE 
301755Z AUTO 03007KT 10SM CLR 25/13 A3006 RMK A01
TAF
KTYS 
21nm W 
301120Z 3012/3112 00000KT P6SM FEW060 FM301600 35007KT P6SM FEW150 SCT250 FM302200 34011KT P6SM SCT250 FM310100 36006KT P6SM FEW080 SCT250
NOTAMs
Click for the latest NOTAMs
NOTAMs are issued by the DoD/FAA and will open in a separate window not controlled by AirNav.

 

 
 

Would you like to see your business listed on this page?

 If your business provides an interesting product or service to pilots, flight crews, aircraft, or users of the Eagles Landing Heliport, you should consider listing it here.  To start the listing process, click on the button below
 
Add a business
 

Other Pages about Eagles Landing Heliport

Update a link
 
Copyright © AirNav, LLC. All rights reserved. Privacy Policy  Contact